Tarpon Springs, Florida
Current Conditions -  °F | °C
As of 12:55 PM on Thursday 30 Oct 2014 (Local Time) from KCLW Reporting Station
Scattered Clouds Scattered Clouds  
Wind Chill: 77°   Ceiling: Unl
Heat Index: 79°   Visibility: 10mi
Dew Point: 61°   Wind: 0mph
Humidity: 57%   Direction: NA
Pressure: 29.96"   Gusts: NA
Location:  28.15°N, 82.75°W
Report Text: KCLW 301655Z AUTO 00000KT 10SM SCT095 25/16 A2996 RMK AO2
Loading
Personal Weather Stations






























Interactive Weather Map
Tropical Storm Tracking
New forecast layout! Learn more

10-Day Weather Forecast

Advertisements
Track Severe Weather on mobile